createdAt,value
2016-11-08T12:30:05.338Z,720.67
2016-11-08T12:31:05.306Z,720.66
2016-11-08T12:32:05.281Z,720.77
2016-11-08T12:33:05.253Z,720.65
2016-11-08T12:34:05.236Z,720.67
2016-11-08T12:35:05.210Z,720.71
2016-11-08T12:36:05.184Z,720.76
2016-11-08T12:37:05.158Z,720.73
2016-11-08T12:38:05.133Z,720.59
2016-11-08T12:39:05.101Z,720.66
2016-11-08T12:40:05.074Z,720.69
2016-11-08T12:41:05.056Z,720.74
2016-11-08T12:42:05.031Z,720.73
2016-11-08T12:43:04.998Z,720.68
2016-11-08T12:44:04.979Z,720.72
2016-11-08T12:45:04.954Z,720.66
2016-11-08T12:46:04.923Z,720.71
2016-11-08T12:47:04.898Z,720.64
2016-11-08T12:48:04.879Z,720.61
2016-11-08T12:49:04.849Z,720.65
2016-11-08T12:50:04.830Z,720.57
2016-11-08T12:51:04.798Z,720.62
2016-11-08T12:52:04.780Z,720.67
2016-11-08T12:53:04.749Z,720.66
2016-11-08T12:54:04.732Z,720.59
2016-11-08T12:55:04.706Z,720.56
2016-11-08T12:56:04.675Z,720.69
2016-11-08T12:57:04.658Z,720.7
2016-11-08T12:58:04.634Z,720.54
2016-11-08T12:59:04.601Z,720.59
2016-11-08T13:00:04.584Z,720.54
2016-11-08T13:01:04.561Z,720.54
2016-11-08T13:02:04.528Z,720.55
2016-11-08T13:03:04.504Z,720.57
2016-11-08T13:04:04.481Z,720.65
2016-11-08T13:05:04.463Z,720.62
2016-11-08T13:06:04.431Z,720.58
2016-11-08T13:07:04.413Z,720.58
2016-11-08T13:08:04.382Z,720.58
2016-11-08T13:09:04.365Z,720.62
2016-11-08T13:10:04.335Z,720.62
2016-11-08T13:11:04.308Z,720.58
2016-11-08T13:12:04.290Z,720.6
2016-11-08T13:13:04.264Z,720.65
2016-11-08T13:14:04.233Z,720.62
2016-11-08T13:15:04.215Z,720.59
2016-11-08T13:16:04.183Z,720.72
2016-11-08T13:17:04.157Z,720.7
2016-11-08T13:18:04.139Z,720.72
2016-11-08T13:19:04.115Z,720.59
2016-11-08T13:20:04.082Z,720.6
2016-11-08T13:21:04.056Z,720.66
2016-11-08T13:22:04.031Z,720.63
2016-11-08T13:23:04.006Z,720.61
2016-11-08T13:24:03.980Z,720.63
2016-11-08T13:25:03.956Z,720.62
2016-11-08T13:26:03.930Z,720.66
2016-11-08T13:27:03.911Z,720.62
2016-11-08T13:28:03.878Z,720.67
2016-11-08T13:29:03.860Z,720.6
2016-11-08T13:30:03.834Z,720.68
2016-11-08T13:31:03.809Z,720.68
2016-11-08T13:32:03.777Z,720.6
2016-11-08T13:33:03.958Z,720.56
2016-11-08T13:34:03.733Z,720.6
2016-11-08T13:35:03.699Z,720.58
2016-11-08T13:36:03.676Z,720.6
2016-11-08T13:37:03.657Z,720.6
2016-11-08T13:38:03.624Z,720.57
2016-11-08T13:39:03.598Z,720.65
2016-11-08T13:40:03.575Z,720.7
2016-11-08T13:41:03.556Z,720.72
2016-11-08T13:42:03.531Z,720.75
2016-11-08T13:43:03.499Z,720.73
2016-11-08T13:44:03.481Z,720.72
2016-11-08T13:45:03.457Z,720.69
2016-11-08T13:46:03.432Z,720.66
2016-11-08T13:47:03.400Z,720.62
2016-11-08T13:48:03.376Z,720.72
2016-11-08T13:49:03.352Z,720.63
2016-11-08T13:50:03.327Z,720.64
2016-11-08T13:51:03.304Z,720.68
2016-11-08T13:52:03.286Z,720.71
2016-11-08T13:53:03.255Z,720.65
2016-11-08T13:54:03.236Z,720.68
2016-11-08T13:55:03.205Z,720.71
2016-11-08T13:56:03.181Z,720.68
2016-11-08T13:57:03.162Z,720.62
2016-11-08T13:58:03.131Z,720.72
2016-11-08T13:59:03.113Z,720.67
2016-11-08T14:00:03.089Z,720.74
2016-11-08T14:01:03.056Z,720.7
2016-11-08T14:02:03.038Z,720.68
2016-11-08T14:03:03.007Z,720.66
2016-11-08T14:04:02.990Z,720.7
2016-11-08T14:05:02.965Z,720.63
2016-11-08T14:06:02.934Z,720.72
2016-11-08T14:07:02.915Z,720.67
2016-11-08T14:08:02.889Z,720.66
2016-11-08T14:09:02.864Z,720.69
2016-11-08T14:10:02.834Z,720.65
2016-11-08T14:11:02.815Z,720.65
2016-11-08T14:12:02.789Z,720.65
2016-11-08T14:13:02.765Z,720.62
2016-11-08T14:14:02.733Z,720.7
2016-11-08T14:15:02.715Z,720.66
2016-11-08T14:16:02.684Z,720.64
2016-11-08T14:17:02.659Z,720.7
2016-11-08T14:18:02.641Z,720.74
2016-11-08T14:19:02.616Z,720.64
2016-11-08T14:20:02.591Z,720.64
2016-11-08T14:21:02.566Z,720.66
2016-11-08T14:22:02.534Z,720.82
2016-11-08T14:23:02.515Z,720.73
2016-11-08T14:24:02.491Z,720.73
2016-11-08T14:25:02.466Z,720.71
2016-11-08T14:26:02.433Z,720.77
2016-11-08T14:27:02.415Z,720.79
2016-11-08T14:28:02.390Z,720.73
2016-11-08T14:29:02.364Z,720.76
2016-11-08T14:30:02.330Z,720.78
2016-11-08T14:31:02.313Z,720.74
2016-11-08T14:32:02.287Z,720.76
2016-11-08T14:33:02.256Z,720.79
2016-11-08T14:34:02.228Z,720.73
2016-11-08T14:35:02.203Z,720.7
2016-11-08T14:36:02.178Z,720.79
2016-11-08T14:37:02.158Z,720.81
2016-11-08T14:38:02.126Z,720.81
2016-11-08T14:39:02.108Z,720.83
2016-11-08T14:40:02.076Z,720.84
2016-11-08T14:41:02.057Z,720.8
2016-11-08T14:42:02.024Z,720.83
2016-11-08T14:43:01.999Z,720.78
2016-11-08T14:44:01.974Z,720.79
2016-11-08T14:45:01.948Z,720.8
2016-11-08T14:46:01.931Z,720.88
2016-11-08T14:47:01.906Z,720.84
2016-11-08T14:48:01.880Z,720.84
2016-11-08T14:49:01.848Z,720.84
2016-11-08T14:50:01.831Z,720.79
2016-11-08T14:51:01.806Z,720.78
2016-11-08T14:52:01.780Z,720.82
2016-11-08T14:53:01.755Z,720.87
2016-11-08T14:54:01.730Z,720.87
2016-11-08T14:55:01.706Z,720.92
2016-11-08T14:56:01.681Z,720.87
2016-11-08T14:57:01.648Z,720.86
2016-11-08T14:58:01.630Z,720.82
2016-11-08T14:59:01.597Z,720.79
2016-11-08T15:00:01.572Z,720.87
2016-11-08T15:01:01.548Z,720.9
2016-11-08T15:02:01.523Z,720.83
2016-11-08T15:03:01.496Z,720.79
2016-11-08T15:04:01.477Z,720.81
2016-11-08T15:05:01.445Z,720.8
2016-11-08T15:06:01.421Z,720.83
2016-11-08T15:07:01.401Z,720.83
2016-11-08T15:08:01.368Z,720.86
2016-11-08T15:09:01.343Z,720.89
2016-11-08T15:10:01.324Z,720.88
2016-11-08T15:11:01.293Z,720.66
2016-11-08T15:12:01.267Z,720.72
2016-11-08T15:13:01.248Z,720.74
2016-11-08T15:14:01.222Z,720.7
2016-11-08T15:15:01.190Z,720.62
2016-11-08T15:16:01.312Z,720.68
2016-11-08T15:17:01.138Z,720.69
2016-11-08T15:18:01.118Z,720.8
2016-11-08T15:19:01.086Z,720.75
2016-11-08T15:20:01.066Z,720.77
2016-11-08T15:21:01.033Z,720.62
2016-11-08T15:22:01.007Z,720.74
2016-11-08T15:23:00.980Z,720.75
2016-11-08T15:24:00.958Z,720.76
2016-11-08T15:25:00.935Z,720.79
2016-11-08T15:26:00.902Z,720.84
2016-11-08T15:27:00.883Z,720.63
2016-11-08T15:28:00.849Z,720.73
2016-11-08T15:29:00.822Z,720.79
2016-11-08T15:30:00.804Z,720.77
2016-11-08T15:31:00.777Z,720.82
2016-11-08T15:32:00.743Z,720.79
2016-11-08T15:33:00.724Z,720.73
2016-11-08T15:34:00.692Z,720.8
2016-11-08T15:35:00.665Z,720.87
2016-11-08T15:36:00.644Z,720.86
2016-11-08T15:37:00.619Z,720.87
2016-11-08T15:38:00.585Z,720.85
2016-11-08T15:39:00.566Z,720.93
2016-11-08T15:40:00.539Z,720.79
2016-11-08T15:41:00.506Z,720.87
2016-11-08T15:42:00.487Z,720.83
2016-11-08T15:43:00.460Z,720.87
2016-11-08T15:44:00.434Z,720.84
2016-11-08T15:45:00.407Z,720.86
2016-11-08T15:46:00.374Z,720.98
2016-11-08T15:47:00.354Z,720.95
2016-11-08T15:48:00.322Z,720.92
2016-11-08T15:49:00.301Z,720.94
2016-11-08T15:50:00.267Z,720.89
2016-11-08T15:51:00.248Z,720.77
2016-11-08T15:52:00.221Z,720.85
2016-11-08T15:53:00.195Z,720.89
2016-11-08T15:54:00.160Z,720.83
2016-11-08T15:55:00.135Z,720.78
2016-11-08T15:56:00.115Z,720.81
2016-11-08T15:57:00.089Z,720.88
2016-11-08T15:58:00.062Z,720.85
2016-11-08T15:59:00.029Z,720.83
2016-11-08T16:00:00.003Z,720.84
2016-11-08T16:00:59.982Z,720.86
2016-11-08T16:01:59.956Z,720.88
2016-11-08T16:02:59.923Z,720.88
2016-11-08T16:03:59.903Z,720.8
2016-11-08T16:04:59.877Z,720.86
2016-11-08T16:05:59.842Z,720.76
2016-11-08T16:06:59.815Z,720.87
2016-11-08T16:07:59.793Z,720.8
2016-11-08T16:08:59.769Z,720.81
2016-11-08T16:09:59.746Z,720.81
2016-11-08T16:10:59.716Z,720.89
2016-11-08T16:11:59.689Z,720.91
2016-11-08T16:12:59.656Z,720.84
2016-11-08T16:13:59.636Z,720.99
2016-11-08T16:14:59.610Z,720.88
2016-11-08T16:15:59.783Z,720.9
2016-11-08T16:16:59.549Z,720.92
2016-11-08T16:17:59.530Z,720.93
2016-11-08T16:18:59.496Z,720.91
2016-11-08T16:19:59.469Z,720.97
2016-11-08T16:20:59.443Z,721.03
2016-11-08T16:21:59.416Z,720.87
2016-11-08T16:22:59.396Z,721.05
2016-11-08T16:23:59.369Z,720.89
2016-11-08T16:24:59.344Z,720.95
2016-11-08T16:25:59.316Z,721.07
2016-11-08T16:26:59.283Z,721.11
2016-11-08T16:27:59.262Z,721.14
2016-11-08T16:28:59.236Z,721.16
2016-11-08T16:29:59.209Z,721.18
2016-11-08T16:30:59.175Z,721.12
2016-11-08T16:31:59.149Z,721.17
2016-11-08T16:32:59.131Z,721.1
2016-11-08T16:33:59.101Z,721.05
2016-11-08T16:34:59.075Z,721.12
2016-11-08T16:35:59.048Z,721.19
2016-11-08T16:36:59.022Z,721.17
2016-11-08T16:37:58.987Z,721.21
2016-11-08T16:38:58.965Z,721.2
2016-11-08T16:39:58.934Z,721.24
2016-11-08T16:40:58.909Z,721.16
2016-11-08T16:41:58.888Z,721.23
2016-11-08T16:42:58.856Z,721.19
2016-11-08T16:43:58.835Z,721.25
2016-11-08T16:44:58.807Z,721.2
2016-11-08T16:45:58.781Z,721.33
2016-11-08T16:46:58.755Z,721.32
2016-11-08T16:47:58.722Z,721.34
2016-11-08T16:48:58.701Z,721.36
2016-11-08T16:49:58.668Z,721.4
2016-11-08T16:50:58.643Z,721.4
2016-11-08T16:51:58.623Z,721.37
2016-11-08T16:52:58.589Z,721.37
2016-11-08T16:53:58.564Z,721.37
2016-11-08T16:54:58.538Z,721.48
2016-11-08T16:55:58.517Z,721.44
2016-11-08T16:56:58.491Z,721.46
2016-11-08T16:57:58.458Z,721.43
2016-11-08T16:58:58.432Z,721.47
2016-11-08T16:59:58.406Z,721.37
2016-11-08T17:00:58.381Z,721.43
2016-11-08T17:01:58.362Z,721.4
2016-11-08T17:02:58.328Z,721.48
2016-11-08T17:03:58.302Z,721.45
2016-11-08T17:04:58.276Z,721.43
2016-11-08T17:05:58.256Z,721.46
2016-11-08T17:06:58.223Z,721.48
2016-11-08T17:07:58.197Z,721.48
2016-11-08T17:08:58.177Z,721.5
2016-11-08T17:09:58.151Z,721.56
2016-11-08T17:10:58.118Z,721.51
2016-11-08T17:11:58.098Z,721.5
2016-11-08T17:12:58.072Z,721.56
2016-11-08T17:13:58.040Z,721.52
2016-11-08T17:14:58.019Z,721.55
2016-11-08T17:15:57.993Z,721.54
2016-11-08T17:16:57.967Z,721.56
2016-11-08T17:17:57.933Z,721.5
2016-11-08T17:18:57.907Z,721.62
2016-11-08T17:19:57.888Z,721.56
2016-11-08T17:20:57.862Z,721.59
2016-11-08T17:21:57.835Z,721.56
2016-11-08T17:22:57.801Z,721.62
2016-11-08T17:23:57.775Z,721.6
2016-11-08T17:24:57.951Z,721.6
2016-11-08T17:25:57.723Z,721.52
2016-11-08T17:26:57.698Z,721.63
2016-11-08T17:27:57.671Z,721.6
2016-11-08T17:28:57.651Z,721.53
2016-11-08T17:29:57.626Z,721.48
2016-11-08T17:30:57.593Z,721.56
2016-11-08T17:31:57.568Z,721.61
2016-11-08T17:32:57.542Z,721.62
2016-11-08T17:33:57.523Z,721.51
2016-11-08T17:34:57.490Z,721.73
2016-11-08T17:35:57.465Z,721.6
2016-11-08T17:36:57.445Z,721.64
2016-11-08T17:37:57.420Z,721.66
2016-11-08T17:38:57.387Z,721.71
2016-11-08T17:39:57.368Z,721.59
2016-11-08T17:40:57.342Z,721.7
2016-11-08T17:41:57.316Z,721.58
2016-11-08T17:42:57.283Z,721.54
2016-11-08T17:43:57.257Z,721.52
2016-11-08T17:44:57.232Z,721.62
2016-11-08T17:45:57.213Z,721.6
2016-11-08T17:46:57.186Z,721.67
2016-11-08T17:47:57.160Z,721.58
2016-11-08T17:48:57.135Z,721.53
2016-11-08T17:49:57.305Z,721.59
2016-11-08T17:50:57.082Z,721.67
2016-11-08T17:51:57.056Z,721.72
2016-11-08T17:52:57.023Z,721.75
2016-11-08T17:53:56.998Z,721.79
2016-11-08T17:54:56.974Z,721.7
2016-11-08T17:55:56.953Z,721.8
2016-11-08T17:56:56.921Z,721.68
2016-11-08T17:57:56.901Z,721.74
2016-11-08T17:58:56.876Z,721.71
2016-11-08T17:59:56.844Z,721.71
2016-11-08T18:00:56.825Z,721.76
2016-11-08T18:01:56.798Z,721.7
2016-11-08T18:02:56.766Z,721.77
2016-11-08T18:03:56.742Z,721.79
2016-11-08T18:04:56.723Z,721.81
2016-11-08T18:05:56.697Z,721.77
2016-11-08T18:06:56.671Z,721.8
2016-11-08T18:07:56.639Z,721.79
2016-11-08T18:08:56.620Z,721.87
2016-11-08T18:09:56.588Z,721.82
2016-11-08T18:10:56.564Z,721.85
2016-11-08T18:11:56.545Z,721.8
2016-11-08T18:12:56.512Z,721.86
2016-11-08T18:13:56.488Z,721.89
2016-11-08T18:14:56.470Z,721.87
2016-11-08T18:15:56.647Z,721.87
2016-11-08T18:16:56.614Z,721.86
2016-11-08T18:17:56.389Z,721.87
2016-11-08T18:18:56.414Z,721.85
2016-11-08T18:19:56.338Z,721.88
2016-11-08T18:20:56.313Z,721.91
2016-11-08T18:21:56.294Z,721.94
2016-11-08T18:22:56.269Z,721.93
2016-11-08T18:23:56.237Z,721.92
2016-11-08T18:24:56.211Z,721.84
2016-11-08T18:25:56.196Z,721.87
2016-11-08T18:26:56.182Z,721.86
2016-11-08T18:27:56.143Z,721.88
2016-11-08T18:28:56.118Z,721.88
2016-11-08T18:29:56.093Z,721.84
2016-11-08T18:30:56.060Z,721.89
2016-11-08T18:31:56.035Z,721.82
2016-11-08T18:32:56.012Z,721.86
2016-11-08T18:33:55.986Z,721.83
2016-11-08T18:34:55.968Z,721.87
2016-11-08T18:35:55.943Z,721.9
2016-11-08T18:36:55.911Z,721.87
2016-11-08T18:37:55.887Z,721.89
2016-11-08T18:38:55.868Z,721.87
2016-11-08T18:39:55.837Z,721.86
2016-11-08T18:40:55.812Z,721.89
2016-11-08T18:41:55.792Z,721.87
2016-11-08T18:42:55.762Z,721.86
2016-11-08T18:43:55.743Z,721.84
2016-11-08T18:44:55.719Z,721.83
2016-11-08T18:45:55.693Z,721.86
2016-11-08T18:46:55.662Z,721.78
2016-11-08T18:47:55.644Z,721.84
2016-11-08T18:48:55.623Z,721.89
2016-11-08T18:49:55.588Z,721.79
2016-11-08T18:50:55.570Z,721.64
2016-11-08T18:51:55.545Z,721.8
2016-11-08T18:52:55.520Z,721.69
2016-11-08T18:53:55.495Z,721.65
2016-11-08T18:54:55.620Z,721.79
2016-11-08T18:55:55.438Z,721.78
2016-11-08T18:56:55.414Z,721.64
2016-11-08T18:57:55.388Z,721.79
2016-11-08T18:58:55.370Z,721.84
2016-11-08T18:59:55.338Z,721.77
2016-11-08T19:00:55.319Z,721.63
2016-11-08T19:01:55.295Z,721.8
2016-11-08T19:02:55.274Z,721.75
2016-11-08T19:03:55.238Z,721.77
2016-11-08T19:04:55.213Z,721.83
2016-11-08T19:05:55.187Z,721.68
2016-11-08T19:06:55.169Z,721.71
2016-11-08T19:07:55.136Z,721.83
2016-11-08T19:08:55.111Z,721.66
2016-11-08T19:09:55.086Z,721.57
2016-11-08T19:10:55.067Z,721.69
2016-11-08T19:11:55.038Z,721.73
2016-11-08T19:12:55.017Z,721.71
2016-11-08T19:13:54.993Z,721.74
2016-11-08T19:14:54.959Z,721.81
2016-11-08T19:15:54.940Z,721.73
2016-11-08T19:16:54.915Z,721.78
2016-11-08T19:17:54.883Z,721.66
2016-11-08T19:18:54.857Z,721.74
2016-11-08T19:19:54.838Z,721.58
2016-11-08T19:20:54.806Z,721.61
2016-11-08T19:21:54.787Z,721.59
2016-11-08T19:22:54.761Z,721.62
2016-11-08T19:23:54.730Z,721.64
2016-11-08T19:24:54.711Z,721.58
2016-11-08T19:25:54.677Z,721.64
2016-11-08T19:26:54.652Z,721.69
2016-11-08T19:27:54.627Z,721.61
2016-11-08T19:28:54.609Z,721.64
2016-11-08T19:29:54.575Z,721.64
2016-11-08T19:30:54.551Z,721.7
2016-11-08T19:31:54.532Z,721.64
2016-11-08T19:32:54.510Z,721.63
2016-11-08T19:33:54.475Z,721.61
2016-11-08T19:34:54.449Z,721.62
2016-11-08T19:35:54.432Z,721.66
2016-11-08T19:36:54.397Z,721.63
2016-11-08T19:37:54.379Z,721.7
2016-11-08T19:38:54.353Z,721.7
2016-11-08T19:39:54.321Z,721.73
2016-11-08T19:40:54.294Z,721.71
2016-11-08T19:41:54.276Z,721.67
2016-11-08T19:42:54.251Z,721.73
2016-11-08T19:43:54.217Z,721.78
2016-11-08T19:44:54.193Z,721.74
2016-11-08T19:45:54.167Z,721.72
2016-11-08T19:46:54.143Z,721.59
2016-11-08T19:47:54.116Z,721.67
2016-11-08T19:48:54.090Z,721.76
2016-11-08T19:49:54.072Z,721.74
2016-11-08T19:50:54.047Z,721.79
2016-11-08T19:51:54.021Z,721.74
2016-11-08T19:52:53.990Z,721.68
2016-11-08T19:53:53.965Z,721.65
2016-11-08T19:54:53.945Z,721.73
2016-11-08T19:55:53.920Z,721.72
2016-11-08T19:56:53.895Z,721.7
2016-11-08T19:57:53.864Z,721.71
2016-11-08T19:58:53.844Z,721.7
2016-11-08T19:59:53.819Z,721.75
2016-11-08T20:00:53.787Z,721.73
2016-11-08T20:01:53.769Z,721.79
2016-11-08T20:02:53.743Z,721.77
2016-11-08T20:03:53.712Z,721.81
2016-11-08T20:04:53.694Z,721.76
2016-11-08T20:05:53.660Z,721.71
2016-11-08T20:06:53.643Z,721.78
2016-11-08T20:07:53.618Z,721.75
2016-11-08T20:08:53.593Z,721.73
2016-11-08T20:09:53.568Z,721.81
2016-11-08T20:10:53.537Z,721.8
2016-11-08T20:11:53.518Z,721.77
2016-11-08T20:12:53.493Z,721.82
2016-11-08T20:13:53.468Z,721.85
2016-11-08T20:14:53.444Z,721.86
2016-11-08T20:15:53.415Z,721.82
2016-11-08T20:16:53.394Z,721.88
2016-11-08T20:17:53.363Z,721.88
2016-11-08T20:18:53.338Z,721.81
2016-11-08T20:19:53.321Z,721.87
2016-11-08T20:20:53.290Z,721.84
2016-11-08T20:21:53.273Z,721.8
2016-11-08T20:22:53.248Z,721.81
2016-11-08T20:23:53.217Z,721.81
2016-11-08T20:24:53.193Z,721.83
2016-11-08T20:25:53.168Z,721.84
2016-11-08T20:26:53.144Z,721.84
2016-11-08T20:27:53.125Z,721.86
2016-11-08T20:28:53.100Z,721.76
2016-11-08T20:29:53.068Z,721.73
2016-11-08T20:30:53.045Z,721.78
2016-11-08T20:31:53.026Z,721.75
2016-11-08T20:32:53.001Z,721.81
2016-11-08T20:33:52.976Z,721.72
2016-11-08T20:34:52.951Z,721.73
2016-11-08T20:35:52.919Z,721.73
2016-11-08T20:36:52.896Z,721.73
2016-11-08T20:37:52.871Z,721.75
2016-11-08T20:38:52.852Z,721.78
2016-11-08T20:39:52.828Z,721.82
2016-11-08T20:40:52.804Z,721.81
2016-11-08T20:41:52.773Z,721.75
2016-11-08T20:42:52.754Z,721.73
2016-11-08T20:43:52.730Z,721.76
2016-11-08T20:44:52.699Z,721.81
2016-11-08T20:45:52.673Z,721.79
2016-11-08T20:46:52.655Z,721.81
2016-11-08T20:47:52.623Z,721.73
2016-11-08T20:48:52.599Z,721.74
2016-11-08T20:49:52.573Z,721.84
2016-11-08T20:50:52.556Z,721.76
2016-11-08T20:51:52.532Z,721.76
2016-11-08T20:52:52.501Z,721.68
2016-11-08T20:53:52.475Z,721.81
2016-11-08T20:54:52.449Z,721.65
2016-11-08T20:55:52.431Z,721.67
2016-11-08T20:56:52.405Z,721.74
2016-11-08T20:57:52.380Z,721.74
2016-11-08T20:58:52.349Z,721.72
2016-11-08T20:59:52.330Z,721.62
2016-11-08T21:00:52.298Z,721.68
2016-11-08T21:01:52.279Z,721.68
2016-11-08T21:02:52.248Z,721.73
2016-11-08T21:03:52.228Z,721.63
2016-11-08T21:04:52.202Z,721.65
2016-11-08T21:05:52.170Z,721.65
2016-11-08T21:06:52.152Z,721.7
2016-11-08T21:07:52.119Z,721.71
2016-11-08T21:08:52.093Z,721.75
2016-11-08T21:09:52.068Z,721.59
2016-11-08T21:10:52.044Z,721.66
2016-11-08T21:11:52.017Z,721.65
2016-11-08T21:12:51.991Z,721.6
2016-11-08T21:13:51.966Z,721.63
2016-11-08T21:14:51.940Z,721.64
2016-11-08T21:15:51.921Z,721.62
2016-11-08T21:16:51.896Z,721.62
2016-11-08T21:17:51.873Z,721.65
2016-11-08T21:18:51.843Z,721.56
2016-11-08T21:19:51.818Z,721.65
2016-11-08T21:20:51.785Z,721.59
2016-11-08T21:21:51.760Z,721.68
2016-11-08T21:22:51.734Z,721.72
2016-11-08T21:23:51.715Z,721.64
2016-11-08T21:24:51.683Z,721.62
2016-11-08T21:25:51.658Z,721.67
2016-11-08T21:26:51.638Z,721.63
2016-11-08T21:27:51.612Z,721.61
2016-11-08T21:28:51.579Z,721.63
2016-11-08T21:29:51.560Z,721.64
2016-11-08T21:30:51.528Z,721.66
2016-11-08T21:31:51.501Z,721.63
2016-11-08T21:32:51.477Z,721.66
2016-11-08T21:33:51.457Z,721.7
2016-11-08T21:34:51.426Z,721.74
2016-11-08T21:35:51.399Z,721.7
2016-11-08T21:36:51.382Z,721.67
2016-11-08T21:37:51.349Z,721.75
2016-11-08T21:38:51.330Z,721.74
2016-11-08T21:39:51.305Z,721.71
2016-11-08T21:40:51.279Z,721.74
2016-11-08T21:41:51.255Z,721.63
2016-11-08T21:42:51.222Z,721.59
2016-11-08T21:43:51.198Z,721.71
2016-11-08T21:44:51.179Z,721.7
2016-11-08T21:45:51.146Z,721.67
2016-11-08T21:46:51.129Z,721.66
2016-11-08T21:47:51.104Z,721.68
2016-11-08T21:48:51.078Z,721.7
2016-11-08T21:49:51.046Z,721.64
2016-11-08T21:50:51.028Z,721.63
2016-11-08T21:51:51.002Z,721.64
2016-11-08T21:52:50.977Z,721.59
2016-11-08T21:53:50.952Z,721.6
2016-11-08T21:54:50.927Z,721.63
2016-11-08T21:55:50.894Z,721.54
2016-11-08T21:56:50.869Z,721.61
2016-11-08T21:57:50.845Z,721.59
2016-11-08T21:58:50.827Z,721.63
2016-11-08T21:59:50.802Z,721.63
2016-11-08T22:00:50.770Z,721.57
2016-11-08T22:01:50.746Z,721.58
2016-11-08T22:02:50.720Z,721.66
2016-11-08T22:03:50.702Z,721.65
2016-11-08T22:04:50.679Z,721.63
2016-11-08T22:05:50.651Z,721.65
2016-11-08T22:06:50.626Z,721.6
2016-11-08T22:07:50.595Z,721.67
2016-11-08T22:08:50.626Z,721.72
2016-11-08T22:09:50.544Z,721.71
2016-11-08T22:10:50.525Z,721.67
2016-11-08T22:11:50.492Z,721.65
2016-11-08T22:12:50.467Z,721.69
2016-11-08T22:13:50.441Z,721.74
2016-11-08T22:14:50.416Z,721.75
2016-11-08T22:15:50.398Z,721.78
2016-11-08T22:16:50.373Z,721.72
2016-11-08T22:17:50.339Z,721.69
2016-11-08T22:18:50.315Z,721.69
2016-11-08T22:19:50.290Z,721.64
2016-11-08T22:20:50.264Z,721.64
2016-11-08T22:21:50.245Z,721.68
2016-11-08T22:22:50.221Z,721.68
2016-11-08T22:23:50.189Z,721.74
2016-11-08T22:24:50.162Z,721.56
2016-11-08T22:25:50.137Z,721.67
2016-11-08T22:26:50.112Z,721.66
2016-11-08T22:27:50.095Z,721.67
2016-11-08T22:28:50.061Z,721.72
2016-11-08T22:29:50.043Z,721.66
2016-11-08T22:30:50.019Z,721.63
2016-11-08T22:31:49.985Z,721.73
2016-11-08T22:32:49.960Z,721.72
2016-11-08T22:33:49.943Z,721.63
2016-11-08T22:34:49.911Z,721.67
2016-11-08T22:35:49.891Z,721.71
2016-11-08T22:36:49.870Z,721.75
2016-11-08T22:37:49.835Z,721.75
2016-11-08T22:38:49.815Z,721.74
2016-11-08T22:39:49.789Z,721.68
2016-11-08T22:40:49.764Z,721.61
2016-11-08T22:41:49.732Z,721.64
2016-11-08T22:42:49.706Z,721.74
2016-11-08T22:43:49.687Z,721.77
2016-11-08T22:44:49.661Z,721.77
2016-11-08T22:45:49.636Z,721.63
2016-11-08T22:46:49.602Z,721.79
2016-11-08T22:47:49.583Z,721.73
2016-11-08T22:48:49.550Z,721.76
2016-11-08T22:49:49.524Z,721.64
2016-11-08T22:50:49.505Z,721.72
2016-11-08T22:51:49.479Z,721.76
2016-11-08T22:52:49.446Z,721.69
2016-11-08T22:53:49.419Z,721.63
2016-11-08T22:54:49.394Z,721.63
2016-11-08T22:55:49.369Z,721.6
2016-11-08T22:56:49.343Z,721.64
2016-11-08T22:57:49.323Z,721.69
2016-11-08T22:58:49.297Z,721.68
2016-11-08T22:59:49.272Z,721.55
2016-11-08T23:00:49.242Z,721.61
2016-11-08T23:01:49.212Z,721.57
2016-11-08T23:02:49.194Z,721.66
2016-11-08T23:03:49.161Z,721.62
2016-11-08T23:04:49.136Z,721.61
2016-11-08T23:05:49.110Z,721.5
2016-11-08T23:06:49.084Z,721.64
2016-11-08T23:07:49.066Z,721.58
2016-11-08T23:08:49.034Z,721.63
2016-11-08T23:09:49.015Z,721.64
2016-11-08T23:10:48.982Z,721.57
2016-11-08T23:11:48.958Z,721.61
2016-11-08T23:12:48.938Z,721.72
2016-11-08T23:13:48.913Z,721.57
2016-11-08T23:14:48.879Z,721.58
2016-11-08T23:15:48.861Z,721.61
2016-11-08T23:16:48.835Z,721.67
2016-11-08T23:17:48.809Z,721.63
2016-11-08T23:18:48.777Z,721.6
2016-11-08T23:19:48.751Z,721.44
2016-11-08T23:20:48.727Z,721.61
2016-11-08T23:21:48.707Z,721.67
2016-11-08T23:22:48.674Z,721.57
2016-11-08T23:23:48.651Z,721.57
2016-11-08T23:24:48.622Z,721.52
2016-11-08T23:25:48.604Z,721.49
2016-11-08T23:26:48.577Z,721.49
2016-11-08T23:27:48.550Z,721.46
2016-11-08T23:28:48.520Z,721.51
2016-11-08T23:29:48.502Z,721.45
2016-11-08T23:30:48.476Z,721.56
2016-11-08T23:31:48.444Z,721.54
2016-11-08T23:32:48.425Z,721.46
2016-11-08T23:33:48.392Z,721.43
2016-11-08T23:34:48.366Z,721.4
2016-11-08T23:35:48.348Z,721.42
2016-11-08T23:36:48.322Z,721.37
2016-11-08T23:37:48.289Z,721.39
2016-11-08T23:38:48.264Z,721.34
2016-11-08T23:39:48.244Z,721.42
2016-11-08T23:40:48.217Z,721.47
2016-11-08T23:41:48.190Z,721.44
2016-11-08T23:42:48.164Z,721.5
2016-11-08T23:43:48.131Z,721.41
2016-11-08T23:44:48.104Z,721.44
2016-11-08T23:45:48.086Z,721.51
2016-11-08T23:46:48.055Z,721.46
2016-11-08T23:47:48.027Z,721.41
2016-11-08T23:48:48.001Z,721.34
2016-11-08T23:49:47.982Z,721.34
2016-11-08T23:50:47.949Z,721.39
2016-11-08T23:51:47.934Z,721.37
2016-11-08T23:52:47.897Z,721.37
2016-11-08T23:53:47.878Z,721.36
2016-11-08T23:54:47.847Z,721.43
2016-11-08T23:55:47.826Z,721.35
2016-11-08T23:56:47.801Z,721.39
2016-11-08T23:57:47.771Z,721.3
2016-11-08T23:58:47.743Z,721.4
2016-11-08T23:59:47.723Z,721.26
